Time;durP1;ratioP1;P1;durP2;ratioP2;P2;SDS_P1;SDS_P2;PMS_P1;PMS_P2;Temp;Humidity;BMP_temperature;BMP_pressure;BME280_temperature;BME280_humidity;BME280_pressure;Samples;Min_cycle;Max_cycle;Signal;HPM_P1;HPM_P2
2022/05/22 00:00:49;;;;;;;11.27;5.93;;;;;;;;;;5013572;28;20497;-76
2022/05/22 00:03:16;;;;;;;8.77;6.53;;;;;;;;;;5016726;28;20069;-77
2022/05/22 00:05:44;;;;;;;9.07;6.18;;;;;;;;;;5027744;28;20053;-77
2022/05/22 00:08:11;;;;;;;11.18;6.00;;;;;;;;;;5027111;28;20112;-77
2022/05/22 00:10:37;;;;;;;10.48;5.50;;;;;;;;;;5016828;28;20046;-77
2022/05/22 00:13:04;;;;;;;8.05;6.43;;;;;;;;;;5013970;28;20536;-75
2022/05/22 00:15:31;;;;;;;8.32;5.80;;;;;;;;;;5013444;28;20108;-75
2022/05/22 00:17:58;;;;;;;8.77;5.43;;;;;;;;;;5013364;28;20092;-76
2022/05/22 00:20:25;;;;;;;8.63;5.78;;;;;;;;;;5014034;28;20112;-76
2022/05/22 00:22:53;;;;;;;8.38;6.00;;;;;;;;;;5013430;28;20066;-75
2022/05/22 00:25:20;;;;;;;10.70;6.25;;;;;;;;;;5012800;28;20085;-75
2022/05/22 00:27:46;;;;;;;9.13;5.72;;;;;;;;;;5012410;28;20046;-76
2022/05/22 00:30:15;;;;;;;9.00;5.90;;;;;;;;;;5012602;28;20053;-76
2022/05/22 00:32:42;;;;;;;8.90;5.60;;;;;;;;;;5012251;28;20111;-76
2022/05/22 00:35:09;;;;;;;7.80;5.30;;;;;;;;;;5012609;28;20042;-76
2022/05/22 00:37:36;;;;;;;9.00;5.55;;;;;;;;;;5012327;28;20136;-76
2022/05/22 00:40:05;;;;;;;9.35;5.45;;;;;;;;;;5012782;28;20092;-77
2022/05/22 00:42:32;;;;;;;7.28;5.28;;;;;;;;;;5012862;28;20092;-76
2022/05/22 00:44:59;;;;;;;9.38;5.53;;;;;;;;;;5012767;28;20052;-76
2022/05/22 00:47:25;;;;;;;7.63;5.38;;;;;;;;;;5004212;28;20531;-76
2022/05/22 00:49:59;;;;;;;8.57;5.60;;;;;;;;;;5012279;28;20069;-76
2022/05/22 00:52:30;;;;;;;8.45;5.68;;;;;;;;;;5012611;28;20046;-76
2022/05/22 00:55:02;;;;;;;7.25;5.50;;;;;;;;;;5012057;28;20508;-78
2022/05/22 00:57:34;;;;;;;9.15;5.53;;;;;;;;;;5012253;28;20081;-75
2022/05/22 01:00:04;;;;;;;8.77;5.82;;;;;;;;;;5011936;28;20046;-76
2022/05/22 01:03:26;;;;;;;9.68;5.40;;;;;;;;;;5011861;28;20068;-77
2022/05/22 01:05:20;;;;;;;8.90;5.50;;;;;;;;;;5012085;28;20056;-76
2022/05/22 01:07:50;;;;;;;11.40;5.65;;;;;;;;;;5011787;28;20133;-75
2022/05/22 01:10:18;;;;;;;8.73;5.25;;;;;;;;;;5012692;28;20088;-77
2022/05/22 01:12:47;;;;;;;9.70;5.40;;;;;;;;;;5011854;28;20093;-76
2022/05/22 01:15:16;;;;;;;9.27;5.45;;;;;;;;;;5012237;28;20042;-76
2022/05/22 01:17:44;;;;;;;10.15;5.60;;;;;;;;;;5011635;28;20077;-76
2022/05/22 01:20:12;;;;;;;7.53;5.60;;;;;;;;;;5011980;28;20655;-76
2022/05/22 01:22:41;;;;;;;10.10;5.82;;;;;;;;;;5011528;28;20046;-76
2022/05/22 01:25:09;;;;;;;9.32;6.03;;;;;;;;;;5011779;28;20074;-76
2022/05/22 01:27:36;;;;;;;8.82;5.95;;;;;;;;;;5011753;28;20127;-78
2022/05/22 01:30:10;;;;;;;9.07;5.93;;;;;;;;;;5011669;28;20497;-76
2022/05/22 01:32:38;;;;;;;7.82;6.18;;;;;;;;;;5011968;28;20100;-76
2022/05/22 01:35:06;;;;;;;18.17;12.75;;;;;;;;;;5011768;28;20468;-76
2022/05/22 01:37:33;;;;;;;35.83;24.05;;;;;;;;;;5011734;28;20049;-75
2022/05/22 01:40:02;;;;;;;23.40;15.95;;;;;;;;;;5012001;28;20090;-77
2022/05/22 01:42:29;;;;;;;9.52;7.10;;;;;;;;;;5011715;28;20069;-75
2022/05/22 01:44:56;;;;;;;9.40;6.55;;;;;;;;;;5012144;28;20078;-76
2022/05/22 01:47:22;;;;;;;7.90;6.35;;;;;;;;;;5011408;28;20461;-76
2022/05/22 01:49:49;;;;;;;9.25;6.63;;;;;;;;;;5011229;28;20085;-76
2022/05/22 01:52:16;;;;;;;9.55;6.28;;;;;;;;;;5011803;28;20477;-76
2022/05/22 01:54:43;;;;;;;10.75;6.40;;;;;;;;;;5011840;28;20081;-76
2022/05/22 01:57:11;;;;;;;9.50;5.95;;;;;;;;;;5012900;28;20042;-76
2022/05/22 01:59:37;;;;;;;10.60;6.68;;;;;;;;;;5015339;28;20083;-76
2022/05/22 02:02:04;;;;;;;7.90;6.03;;;;;;;;;;5015441;28;20049;-76
2022/05/22 02:04:32;;;;;;;8.73;6.13;;;;;;;;;;5015300;28;20054;-76
2022/05/22 02:09:43;;;;;;;9.25;6.10;;;;;;;;;;5014861;28;20196;-76
2022/05/22 02:12:11;;;;;;;9.25;6.10;;;;;;;;;;5015509;28;20096;-76
2022/05/22 02:14:38;;;;;;;8.93;5.75;;;;;;;;;;5015007;28;20089;-75
2022/05/22 02:17:05;;;;;;;7.78;5.80;;;;;;;;;;5014984;28;20556;-76
2022/05/22 02:19:32;;;;;;;10.00;6.40;;;;;;;;;;5014597;28;20485;-77
2022/05/22 02:21:59;;;;;;;8.20;5.78;;;;;;;;;;5014956;28;20069;-76
2022/05/22 02:24:25;;;;;;;8.50;6.05;;;;;;;;;;5014724;28;20085;-76
2022/05/22 02:26:52;;;;;;;9.48;5.47;;;;;;;;;;5014692;28;20508;-76
2022/05/22 02:29:21;;;;;;;9.45;5.70;;;;;;;;;;5016147;28;20085;-76
2022/05/22 02:31:48;;;;;;;8.15;5.60;;;;;;;;;;4996689;28;20053;-76
2022/05/22 02:34:14;;;;;;;9.60;5.78;;;;;;;;;;5016163;28;20045;-77
2022/05/22 02:36:41;;;;;;;8.30;5.70;;;;;;;;;;5016312;28;20046;-77
2022/05/22 02:39:08;;;;;;;8.35;5.45;;;;;;;;;;5015655;28;20085;-77
2022/05/22 02:41:35;;;;;;;9.50;5.68;;;;;;;;;;5015349;28;20077;-77
2022/05/22 02:44:02;;;;;;;9.10;5.47;;;;;;;;;;5015762;28;20089;-76
2022/05/22 02:46:30;;;;;;;7.40;5.35;;;;;;;;;;5010529;28;20121;-76
2022/05/22 02:48:57;;;;;;;8.52;5.90;;;;;;;;;;5033243;22;20529;-50
2022/05/22 02:51:24;;;;;;;7.70;5.18;;;;;;;;;;5014504;28;20060;-54
2022/05/22 02:53:50;;;;;;;7.22;5.43;;;;;;;;;;5014486;28;20042;-52
2022/05/22 02:56:19;;;;;;;7.65;5.70;;;;;;;;;;5014740;28;20058;-51
2022/05/22 02:58:46;;;;;;;12.13;5.78;;;;;;;;;;5014300;28;20057;-51
2022/05/22 03:01:13;;;;;;;10.18;5.82;;;;;;;;;;5014331;28;20053;-50
2022/05/22 03:03:41;;;;;;;7.80;5.50;;;;;;;;;;5014361;28;20050;-50
2022/05/22 03:08:53;;;;;;;8.13;5.40;;;;;;;;;;5012716;28;20536;-49
2022/05/22 03:11:20;;;;;;;8.02;5.35;;;;;;;;;;5014177;28;20181;-54
2022/05/22 03:13:48;;;;;;;8.82;5.45;;;;;;;;;;5014073;28;20104;-50
2022/05/22 03:16:15;;;;;;;9.88;5.55;;;;;;;;;;5014380;28;20050;-50
2022/05/22 03:18:43;;;;;;;7.95;5.20;;;;;;;;;;5014129;28;20733;-50
2022/05/22 03:21:12;;;;;;;6.38;5.40;;;;;;;;;;5013857;28;20050;-50
2022/05/22 03:23:39;;;;;;;7.78;5.32;;;;;;;;;;5013729;28;20046;-49
2022/05/22 03:26:06;;;;;;;8.73;6.13;;;;;;;;;;5014163;28;20419;-50
2022/05/22 03:28:33;;;;;;;7.53;5.63;;;;;;;;;;5013763;28;20470;-53
2022/05/22 03:31:00;;;;;;;7.38;5.43;;;;;;;;;;5013927;28;20054;-51
2022/05/22 03:33:27;;;;;;;9.63;5.78;;;;;;;;;;5014089;28;20065;-52
2022/05/22 03:35:56;;;;;;;8.07;5.45;;;;;;;;;;5014115;28;20451;-54
2022/05/22 03:38:22;;;;;;;8.32;5.15;;;;;;;;;;5013125;28;20057;-53
2022/05/22 03:40:49;;;;;;;9.05;5.93;;;;;;;;;;5013678;28;20053;-53
2022/05/22 03:43:17;;;;;;;7.35;5.50;;;;;;;;;;5013523;28;20046;-50
2022/05/22 03:45:45;;;;;;;9.02;5.45;;;;;;;;;;5013578;28;20046;-49
2022/05/22 03:48:12;;;;;;;9.90;5.72;;;;;;;;;;5018357;28;20050;-50
2022/05/22 03:50:39;;;;;;;9.48;5.43;;;;;;;;;;5013680;28;20054;-51
2022/05/22 03:53:08;;;;;;;7.80;5.38;;;;;;;;;;5013377;28;20054;-53
2022/05/22 03:55:34;;;;;;;7.15;5.45;;;;;;;;;;5013597;28;20061;-51
2022/05/22 03:58:02;;;;;;;9.20;5.95;;;;;;;;;;5012985;28;20057;-51
2022/05/22 04:00:29;;;;;;;8.27;5.78;;;;;;;;;;5013158;28;20069;-50
2022/05/22 04:02:56;;;;;;;7.85;5.10;;;;;;;;;;5013352;28;20049;-51
2022/05/22 04:05:23;;;;;;;7.55;5.32;;;;;;;;;;5012614;28;20061;-51
2022/05/22 04:07:50;;;;;;;7.55;5.55;;;;;;;;;;5012773;28;20431;-49
2022/05/22 04:10:19;;;;;;;7.45;5.20;;;;;;;;;;5012932;28;20373;-50
2022/05/22 04:12:47;;;;;;;7.75;4.80;;;;;;;;;;5012858;28;20096;-51
2022/05/22 04:15:18;;;;;;;7.97;5.13;;;;;;;;;;5013060;28;20049;-53
2022/05/22 04:17:45;;;;;;;23.27;16.23;;;;;;;;;;5013155;28;20108;-52
2022/05/22 04:20:13;;;;;;;26.13;19.33;;;;;;;;;;5012321;28;20062;-54
2022/05/22 04:25:23;;;;;;;10.45;7.55;;;;;;;;;;5012384;28;20503;-53
2022/05/22 04:27:51;;;;;;;11.38;7.85;;;;;;;;;;5012114;28;20124;-53
2022/05/22 04:30:19;;;;;;;6.55;5.50;;;;;;;;;;5012576;28;20048;-49
2022/05/22 04:32:47;;;;;;;8.30;5.70;;;;;;;;;;5012805;28;20060;-51
2022/05/22 04:35:14;;;;;;;8.30;5.50;;;;;;;;;;5013067;28;20053;-54
2022/05/22 04:37:42;;;;;;;10.25;5.63;;;;;;;;;;5012384;28;20050;-51
2022/05/22 04:40:10;;;;;;;6.85;5.10;;;;;;;;;;5012791;28;20418;-53
2022/05/22 04:42:40;;;;;;;8.82;5.68;;;;;;;;;;5012600;28;20052;-53
2022/05/22 04:45:08;;;;;;;7.35;5.65;;;;;;;;;;5012708;28;20116;-51
2022/05/22 04:47:37;;;;;;;8.27;4.90;;;;;;;;;;5012093;28;20129;-51
2022/05/22 04:50:05;;;;;;;7.60;4.88;;;;;;;;;;5012504;28;20042;-52
2022/05/22 04:52:33;;;;;;;9.02;5.75;;;;;;;;;;5012513;28;20056;-50
2022/05/22 04:55:00;;;;;;;8.40;4.88;;;;;;;;;;5012294;28;20111;-53
2022/05/22 04:57:27;;;;;;;9.98;5.50;;;;;;;;;;5012706;28;20049;-51
2022/05/22 04:59:55;;;;;;;6.95;4.75;;;;;;;;;;5012329;28;20054;-50
2022/05/22 05:02:23;;;;;;;9.35;5.20;;;;;;;;;;5012467;28;20065;-50
2022/05/22 05:04:53;;;;;;;7.60;4.82;;;;;;;;;;5011932;28;20053;-50
2022/05/22 05:07:20;;;;;;;7.10;4.78;;;;;;;;;;5012027;28;20062;-51
2022/05/22 05:09:47;;;;;;;10.48;4.43;;;;;;;;;;5012074;28;20046;-50
2022/05/22 05:12:14;;;;;;;8.65;4.47;;;;;;;;;;5012298;28;20499;-50
2022/05/22 05:14:41;;;;;;;8.00;4.50;;;;;;;;;;5012163;28;20064;-52
2022/05/22 05:17:11;;;;;;;7.75;4.28;;;;;;;;;;5012451;28;20050;-57
2022/05/22 05:19:38;;;;;;;5.32;3.83;;;;;;;;;;5012054;28;20056;-56
2022/05/22 05:22:06;;;;;;;6.63;4.43;;;;;;;;;;5012137;28;20061;-50
2022/05/22 05:24:33;;;;;;;6.10;3.88;;;;;;;;;;5011968;28;20049;-52
2022/05/22 05:27:01;;;;;;;8.90;4.35;;;;;;;;;;5012463;28;20518;-51
2022/05/22 05:29:28;;;;;;;6.88;3.90;;;;;;;;;;5012162;28;20046;-50
2022/05/22 05:31:54;;;;;;;6.90;3.65;;;;;;;;;;5013593;28;20108;-54
2022/05/22 05:34:23;;;;;;;7.90;3.88;;;;;;;;;;5016102;28;20096;-50
2022/05/22 05:36:50;;;;;;;6.30;3.85;;;;;;;;;;5015852;28;20491;-50
2022/05/22 05:39:17;;;;;;;7.45;3.90;;;;;;;;;;5015984;28;20172;-55
2022/05/22 05:41:44;;;;;;;7.40;3.90;;;;;;;;;;5015950;28;20491;-50
2022/05/22 05:44:11;;;;;;;5.57;4.07;;;;;;;;;;5015903;28;20171;-55
2022/05/22 05:46:39;;;;;;;5.70;3.45;;;;;;;;;;5022422;28;20051;-50
2022/05/22 05:49:07;;;;;;;6.95;3.05;;;;;;;;;;5016426;28;20057;-51
2022/05/22 05:51:37;;;;;;;5.28;3.20;;;;;;;;;;5015982;28;20050;-54
2022/05/22 05:54:05;;;;;;;7.28;3.38;;;;;;;;;;5016001;28;20116;-51
2022/05/22 05:56:32;;;;;;;5.72;3.22;;;;;;;;;;5015493;28;20103;-55
2022/05/22 05:58:58;;;;;;;5.70;3.42;;;;;;;;;;5015844;28;20061;-50
2022/05/22 06:01:26;;;;;;;6.70;3.28;;;;;;;;;;5015190;28;20053;-50
2022/05/22 06:03:54;;;;;;;5.65;3.33;;;;;;;;;;5015543;28;20411;-51
2022/05/22 06:06:21;;;;;;;6.40;2.90;;;;;;;;;;5015484;28;20050;-54
2022/05/22 06:08:50;;;;;;;6.85;3.40;;;;;;;;;;5015517;28;20046;-51
2022/05/22 06:11:17;;;;;;;5.15;2.80;;;;;;;;;;5015159;28;20056;-51
2022/05/22 06:13:44;;;;;;;5.78;2.75;;;;;;;;;;5015640;28;20064;-50
2022/05/22 06:16:11;;;;;;;6.63;3.17;;;;;;;;;;5015332;28;20056;-53
2022/05/22 06:18:38;;;;;;;6.57;2.97;;;;;;;;;;5014954;28;20048;-50
2022/05/22 06:21:10;;;;;;;7.80;3.38;;;;;;;;;;5015191;28;20054;-53
2022/05/22 06:23:38;;;;;;;6.90;3.83;;;;;;;;;;5015813;28;20538;-54
2022/05/22 06:26:07;;;;;;;5.82;3.30;;;;;;;;;;5016641;28;20518;-53
2022/05/22 06:28:34;;;;;;;5.15;3.00;;;;;;;;;;5019844;28;20461;-50
2022/05/22 06:31:03;;;;;;;6.18;4.15;;;;;;;;;;5031402;28;20564;-50
2022/05/22 06:33:31;;;;;;;8.15;3.25;;;;;;;;;;5022030;28;20107;-52
2022/05/22 06:35:59;;;;;;;5.20;3.00;;;;;;;;;;5014772;28;20050;-49
2022/05/22 06:41:13;;;;;;;6.35;3.00;;;;;;;;;;5014404;28;20056;-49
2022/05/22 06:43:40;;;;;;;9.18;5.25;;;;;;;;;;5014477;28;20053;-49
2022/05/22 06:46:08;;;;;;;6.22;3.20;;;;;;;;;;5016457;28;20414;-56
2022/05/22 06:48:35;;;;;;;4.45;2.70;;;;;;;;;;5034744;28;20053;-54
2022/05/22 06:51:02;;;;;;;5.75;3.60;;;;;;;;;;5021868;28;20107;-56
2022/05/22 06:53:30;;;;;;;5.30;2.70;;;;;;;;;;5016168;28;20530;-50
2022/05/22 06:55:57;;;;;;;7.57;4.45;;;;;;;;;;5022764;28;20407;-50
2022/05/22 06:58:25;;;;;;;6.70;3.00;;;;;;;;;;5025507;28;20488;-49
2022/05/22 07:00:52;;;;;;;10.20;5.85;;;;;;;;;;5032342;28;20053;-51
2022/05/22 07:03:20;;;;;;;9.25;3.80;;;;;;;;;;5034862;28;20505;-50
2022/05/22 07:05:47;;;;;;;6.88;3.45;;;;;;;;;;5020152;28;20410;-55
2022/05/22 07:08:14;;;;;;;6.35;3.45;;;;;;;;;;5014459;28;20046;-49
2022/05/22 07:13:27;;;;;;;6.05;4.13;;;;;;;;;;5014475;28;20056;-50
2022/05/22 07:16:01;;;;;;;9.25;5.72;;;;;;;;;;5014543;28;20061;-50
2022/05/22 07:18:28;;;;;;;10.43;6.10;;;;;;;;;;5014305;28;20426;-49
2022/05/22 07:20:55;;;;;;;9.15;4.80;;;;;;;;;;5014423;28;20411;-56
2022/05/22 07:23:22;;;;;;;6.45;3.88;;;;;;;;;;5014485;28;20479;-50
2022/05/22 07:25:49;;;;;;;6.95;3.05;;;;;;;;;;5013789;28;20060;-50
2022/05/22 07:28:15;;;;;;;4.82;3.42;;;;;;;;;;5014147;28;20072;-53
2022/05/22 07:30:44;;;;;;;5.70;3.13;;;;;;;;;;5014090;28;20052;-50
2022/05/22 07:33:11;;;;;;;7.68;5.43;;;;;;;;;;5014113;28;20062;-50
2022/05/22 07:35:38;;;;;;;12.27;8.52;;;;;;;;;;5014081;28;20054;-54
2022/05/22 07:38:05;;;;;;;7.13;4.97;;;;;;;;;;5013793;28;20463;-50
2022/05/22 07:40:32;;;;;;;5.57;3.72;;;;;;;;;;5013994;28;20050;-53
2022/05/22 07:42:59;;;;;;;7.20;4.90;;;;;;;;;;5014174;28;20049;-51
2022/05/22 07:45:26;;;;;;;6.55;3.20;;;;;;;;;;5013732;28;20050;-53
2022/05/22 07:47:57;;;;;;;5.88;3.05;;;;;;;;;;5022718;28;20042;-49
2022/05/22 07:50:24;;;;;;;7.20;3.45;;;;;;;;;;5014103;28;20458;-51
2022/05/22 07:52:51;;;;;;;7.25;4.00;;;;;;;;;;5013735;28;20056;-52
2022/05/22 07:55:20;;;;;;;5.57;2.88;;;;;;;;;;5012784;28;20041;-50
2022/05/22 07:57:48;;;;;;;7.63;4.40;;;;;;;;;;5013170;28;20046;-53
2022/05/22 08:00:18;;;;;;;7.10;3.60;;;;;;;;;;5013795;28;20046;-53
2022/05/22 08:02:45;;;;;;;6.53;3.70;;;;;;;;;;5014029;28;20065;-55
2022/05/22 08:05:17;;;;;;;6.07;3.10;;;;;;;;;;5013403;28;20547;-53
2022/05/22 08:07:44;;;;;;;5.35;2.65;;;;;;;;;;5013060;28;20058;-54
2022/05/22 08:10:13;;;;;;;5.43;3.03;;;;;;;;;;5019814;28;20518;-54
2022/05/22 08:12:42;;;;;;;6.10;3.58;;;;;;;;;;5025494;28;20050;-50
2022/05/22 08:15:10;;;;;;;7.82;3.72;;;;;;;;;;5013394;28;20058;-50
2022/05/22 08:17:37;;;;;;;7.75;3.28;;;;;;;;;;5012429;28;20053;-51
2022/05/22 08:20:05;;;;;;;6.80;3.28;;;;;;;;;;5013009;28;20056;-53
2022/05/22 08:22:33;;;;;;;5.53;3.03;;;;;;;;;;5013125;28;20108;-62
2022/05/22 08:25:02;;;;;;;12.32;7.10;;;;;;;;;;5013158;28;20057;-50
2022/05/22 08:27:29;;;;;;;9.23;5.15;;;;;;;;;;5013167;28;20046;-50
2022/05/22 08:29:56;;;;;;;5.60;3.33;;;;;;;;;;5013117;28;20534;-51
2022/05/22 08:32:23;;;;;;;8.43;3.60;;;;;;;;;;5013162;28;20050;-53
2022/05/22 08:34:52;;;;;;;7.63;3.30;;;;;;;;;;5012648;28;20038;-55
2022/05/22 08:37:19;;;;;;;6.65;3.20;;;;;;;;;;5012990;28;20050;-50
2022/05/22 08:39:48;;;;;;;6.97;3.30;;;;;;;;;;5012735;28;20065;-52
2022/05/22 08:42:20;;;;;;;6.78;2.97;;;;;;;;;;5012643;28;20407;-54
2022/05/22 08:44:51;;;;;;;5.72;2.88;;;;;;;;;;5013000;28;20050;-54
2022/05/22 08:47:22;;;;;;;6.65;3.22;;;;;;;;;;5023686;28;20045;-50
2022/05/22 08:49:52;;;;;;;6.53;3.50;;;;;;;;;;5035500;22;20072;-55
2022/05/22 08:52:29;;;;;;;5.38;3.10;;;;;;;;;;5031039;28;20049;-53
2022/05/22 08:55:01;;;;;;;5.75;2.78;;;;;;;;;;5012905;28;20045;-53
2022/05/22 09:00:19;;;;;;;4.63;3.20;;;;;;;;;;5012644;28;20049;-51
2022/05/22 09:02:52;;;;;;;10.55;3.42;;;;;;;;;;5012274;28;20042;-54
2022/05/22 09:05:28;;;;;;;7.13;3.30;;;;;;;;;;5012699;28;20050;-53
2022/05/22 09:07:59;;;;;;;9.52;5.82;;;;;;;;;;5011231;28;20392;-51
2022/05/22 09:10:41;;;;;;;6.93;3.92;;;;;;;;;;5012367;28;20053;-52
2022/05/22 09:13:19;;;;;;;12.52;5.97;;;;;;;;;;5008350;28;20057;-55
2022/05/22 09:15:49;;;;;;;6.45;3.58;;;;;;;;;;5005856;28;20090;-52
2022/05/22 09:18:26;;;;;;;8.75;4.10;;;;;;;;;;5003171;28;20042;-54
2022/05/22 09:20:56;;;;;;;5.72;3.85;;;;;;;;;;5004906;28;20068;-54
2022/05/22 09:23:39;;;;;;;;;;;;;;;;;;5002497;28;20046;-53
2022/05/22 09:26:11;;;;;;;7.13;4.18;;;;;;;;;;5006555;28;19922;-54
2022/05/22 09:28:48;;;;;;;7.97;4.25;;;;;;;;;;5011669;28;20128;-52
2022/05/22 09:31:23;;;;;;;5.50;2.90;;;;;;;;;;5003493;28;20042;-54
2022/05/22 09:34:02;;;;;;;6.38;3.35;;;;;;;;;;5008152;28;20042;-50
2022/05/22 09:36:56;;;;;;;6.95;3.35;;;;;;;;;;5005176;28;20054;-52
2022/05/22 09:39:36;;;;;;;7.25;3.25;;;;;;;;;;5002746;28;20082;-56
2022/05/22 09:42:13;;;;;;;9.15;5.32;;;;;;;;;;5003525;28;20045;-55
2022/05/22 09:45:05;;;;;;;7.30;4.35;;;;;;;;;;5000003;28;20093;-56
2022/05/22 09:47:56;;;;;;;7.57;3.60;;;;;;;;;;5012031;28;20128;-60
2022/05/22 09:50:28;;;;;;;7.28;3.75;;;;;;;;;;5009718;28;20081;-55
2022/05/22 09:53:00;;;;;;;4.75;3.50;;;;;;;;;;5012171;28;20406;-54
2022/05/22 09:55:33;;;;;;;8.65;5.70;;;;;;;;;;5011754;28;20406;-52
2022/05/22 09:58:12;;;;;;;9.23;5.78;;;;;;;;;;5011833;28;20057;-57
2022/05/22 10:00:48;;;;;;;8.20;3.42;;;;;;;;;;5011829;28;20057;-52
2022/05/22 10:03:20;;;;;;;6.03;3.38;;;;;;;;;;5011823;28;20073;-54
2022/05/22 10:05:57;;;;;;;6.70;3.47;;;;;;;;;;5011815;28;20046;-56
2022/05/22 10:08:34;;;;;;;5.03;2.78;;;;;;;;;;5011443;28;20049;-56
2022/05/22 10:11:11;;;;;;;5.63;3.28;;;;;;;;;;5011513;28;20052;-51
2022/05/22 10:13:55;;;;;;;7.35;2.88;;;;;;;;;;4992338;28;20092;-51
2022/05/22 10:16:33;;;;;;;7.32;3.83;;;;;;;;;;5011073;28;20050;-52
2022/05/22 10:19:18;;;;;;;5.57;3.03;;;;;;;;;;5013833;28;20056;-53
2022/05/22 10:21:49;;;;;;;8.63;3.50;;;;;;;;;;5015165;28;20057;-55
2022/05/22 10:24:42;;;;;;;7.28;3.90;;;;;;;;;;5015433;28;20133;-56
2022/05/22 10:27:24;;;;;;;5.90;3.83;;;;;;;;;;5005791;28;20133;-57
2022/05/22 10:29:56;;;;;;;7.30;3.92;;;;;;;;;;5002987;28;20060;-55
2022/05/22 10:32:29;;;;;;;8.40;3.70;;;;;;;;;;5009824;28;20089;-57
2022/05/22 10:35:03;;;;;;;5.47;2.80;;;;;;;;;;5006071;28;20134;-53
2022/05/22 10:37:36;;;;;;;8.48;3.63;;;;;;;;;;5005555;28;20042;-60
2022/05/22 10:40:06;;;;;;;5.30;2.97;;;;;;;;;;5007513;28;20069;-52
2022/05/22 10:42:47;;;;;;;;;;;;;;;;;;4998457;28;20054;-53
2022/05/22 10:45:21;;;;;;;4.78;2.92;;;;;;;;;;5014107;28;20010;-53
2022/05/22 10:47:49;;;;;;;5.70;3.00;;;;;;;;;;5002021;28;20100;-52
2022/05/22 10:50:24;;;;;;;5.47;3.30;;;;;;;;;;5014657;28;20046;-52
2022/05/22 10:52:51;;;;;;;5.63;3.00;;;;;;;;;;5014400;28;20053;-50
2022/05/22 10:55:31;;;;;;;5.22;3.08;;;;;;;;;;5014967;28;20152;-55
2022/05/22 10:58:00;;;;;;;4.57;2.80;;;;;;;;;;5014306;28;20119;-54
2022/05/22 11:00:29;;;;;;;5.63;3.33;;;;;;;;;;5014461;28;20046;-51
2022/05/22 11:02:56;;;;;;;10.68;6.75;;;;;;;;;;5011149;28;20327;-55
2022/05/22 11:05:27;;;;;;;6.13;3.08;;;;;;;;;;5005793;28;20439;-51
2022/05/22 11:07:55;;;;;;;6.15;3.05;;;;;;;;;;5014381;28;20318;-52
2022/05/22 11:10:26;;;;;;;6.07;3.08;;;;;;;;;;5013883;28;20427;-55
2022/05/22 11:13:00;;;;;;;;;;;;;;;;;;5013742;28;20054;-56
2022/05/22 11:15:31;;;;;;;4.97;3.00;;;;;;;;;;5014382;28;19944;-54
2022/05/22 11:18:10;;;;;;;6.10;2.78;;;;;;;;;;5013887;28;20104;-51
2022/05/22 11:20:44;;;;;;;4.00;2.42;;;;;;;;;;5013795;28;20077;-56
2022/05/22 11:23:24;;;;;;;3.95;2.22;;;;;;;;;;5014074;28;20049;-51
2022/05/22 11:26:00;;;;;;;7.18;3.25;;;;;;;;;;5013735;28;20046;-57
2022/05/22 11:28:53;;;;;;;5.20;2.90;;;;;;;;;;5013849;28;20404;-62
2022/05/22 11:31:39;;;;;;;5.13;2.50;;;;;;;;;;5019834;28;20042;-63
2022/05/22 11:34:23;;;;;;;4.18;2.58;;;;;;;;;;5033784;28;20049;-58
2022/05/22 11:37:01;;;;;;;5.75;3.15;;;;;;;;;;5019780;28;20064;-55
2022/05/22 11:39:43;;;;;;;5.80;2.47;;;;;;;;;;5013142;28;20132;-65
2022/05/22 11:42:19;;;;;;;4.72;2.50;;;;;;;;;;5014052;28;20071;-69
2022/05/22 11:45:01;;;;;;;29.55;15.98;;;;;;;;;;5013632;28;20125;-60
2022/05/22 11:47:45;;;;;;;6.32;3.80;;;;;;;;;;5013624;28;20050;-62
2022/05/22 11:50:23;;;;;;;7.20;3.17;;;;;;;;;;5013152;28;20054;-66
2022/05/22 11:53:02;;;;;;;6.03;2.40;;;;;;;;;;5012677;28;20056;-64
2022/05/22 11:55:38;;;;;;;6.28;3.42;;;;;;;;;;5013469;28;20054;-59
2022/05/22 11:58:18;;;;;;;17.15;6.55;;;;;;;;;;5012953;28;20045;-48
2022/05/22 12:00:52;;;;;;;4.80;2.80;;;;;;;;;;5012414;28;20057;-49
2022/05/22 12:03:57;;;;;;;6.35;2.70;;;;;;;;;;5013513;28;20050;-52
2022/05/22 12:06:40;;;;;;;7.00;3.15;;;;;;;;;;5002520;28;20489;-53
2022/05/22 12:09:14;;;;;;;6.18;2.83;;;;;;;;;;5011685;28;20046;-53
2022/05/22 12:11:52;;;;;;;5.03;2.40;;;;;;;;;;5007002;28;20050;-55
2022/05/22 12:14:28;;;;;;;4.60;2.42;;;;;;;;;;5011881;28;20042;-52
2022/05/22 12:16:59;;;;;;;7.15;3.63;;;;;;;;;;5029855;28;20049;-50
2022/05/22 12:19:36;;;;;;;4.15;2.20;;;;;;;;;;5028842;28;20045;-54
2022/05/22 12:22:15;;;;;;;5.47;2.40;;;;;;;;;;5012881;28;20042;-51
2022/05/22 12:24:49;;;;;;;4.73;2.30;;;;;;;;;;5012728;28;20042;-50
2022/05/22 12:27:22;;;;;;;5.43;2.70;;;;;;;;;;5012312;28;20072;-51
2022/05/22 12:30:01;;;;;;;3.75;2.20;;;;;;;;;;5019393;28;20050;-51
2022/05/22 12:32:29;;;;;;;4.20;2.30;;;;;;;;;;5023223;28;20041;-54
2022/05/22 12:34:59;;;;;;;3.60;2.00;;;;;;;;;;5023393;28;20128;-54
2022/05/22 12:37:33;;;;;;;6.57;2.75;;;;;;;;;;5029202;28;20050;-53
2022/05/22 12:40:15;;;;;;;3.90;2.30;;;;;;;;;;5012183;28;20147;-54
2022/05/22 12:42:49;;;;;;;5.65;3.58;;;;;;;;;;5025154;28;20045;-54
2022/05/22 12:45:16;;;;;;;5.28;3.15;;;;;;;;;;5032286;28;20053;-52
2022/05/22 12:47:45;;;;;;;6.25;3.85;;;;;;;;;;5012354;28;20046;-54
2022/05/22 12:50:13;;;;;;;3.63;2.28;;;;;;;;;;5012512;28;20048;-50
2022/05/22 12:52:51;;;;;;;6.10;2.20;;;;;;;;;;5010438;28;20054;-62
2022/05/22 12:55:22;;;;;;;5.18;3.15;;;;;;;;;;5025932;28;20057;-59
2022/05/22 12:57:54;;;;;;;5.40;2.53;;;;;;;;;;5031060;28;20415;-65
2022/05/22 13:00:34;;;;;;;5.00;2.50;;;;;;;;;;5012131;28;20116;-62
2022/05/22 13:03:07;;;;;;;;;;;;;;;;;;5013044;28;20050;-58
2022/05/22 13:05:36;;;;;;;3.85;2.40;;;;;;;;;;5012485;28;19997;-65
2022/05/22 13:08:15;;;;;;;3.72;2.45;;;;;;;;;;5011773;28;20108;-65
2022/05/22 13:10:47;;;;;;;4.97;2.28;;;;;;;;;;5011531;28;20411;-59
2022/05/22 13:13:25;;;;;;;4.80;2.40;;;;;;;;;;5011210;28;20049;-65
2022/05/22 13:16:01;;;;;;;3.85;2.00;;;;;;;;;;5011933;28;20459;-61
2022/05/22 13:18:28;;;;;;;4.35;2.03;;;;;;;;;;5008285;28;20038;-62
2022/05/22 13:20:57;;;;;;;3.38;2.00;;;;;;;;;;5010679;28;20077;-61
2022/05/22 13:23:36;;;;;;;5.40;2.83;;;;;;;;;;5008685;28;20056;-64
2022/05/22 13:26:07;;;;;;;6.50;2.78;;;;;;;;;;5007891;28;20045;-63
2022/05/22 13:28:44;;;;;;;3.45;2.40;;;;;;;;;;5010016;28;20407;-62
2022/05/22 13:31:23;;;;;;;5.53;2.67;;;;;;;;;;5008233;28;20046;-57
2022/05/22 13:33:54;;;;;;;3.83;2.15;;;;;;;;;;5010620;28;20054;-56
2022/05/22 13:36:25;;;;;;;8.38;4.47;;;;;;;;;;5008857;28;20050;-62
2022/05/22 13:38:55;;;;;;;9.63;6.03;;;;;;;;;;5008858;28;20061;-53
2022/05/22 13:41:50;;;;;;;;;;;;;;;;;;5008548;28;20042;-58
2022/05/22 13:45:14;;;;;;;4.95;2.50;;;;;;;;;;5009663;28;20008;-58
2022/05/22 13:48:06;;;;;;;5.22;2.70;;;;;;;;;;4948357;28;20086;-56
2022/05/22 13:54:01;;;;;;;3.75;2.53;;;;;;;;;;5012833;28;20100;-54
2022/05/22 13:56:39;;;;;;;3.40;2.10;;;;;;;;;;5010345;28;20431;-56
2022/05/22 13:59:17;;;;;;;6.47;3.00;;;;;;;;;;5015417;28;20384;-57
2022/05/22 14:01:44;;;;;;;9.27;4.28;;;;;;;;;;5014895;28;20547;-58
2022/05/22 14:04:11;;;;;;;4.75;2.65;;;;;;;;;;5015707;28;20525;-55
2022/05/22 14:06:38;;;;;;;6.65;4.22;;;;;;;;;;5015369;28;20046;-53
2022/05/22 14:09:07;;;;;;;6.13;2.78;;;;;;;;;;5014930;28;20134;-53
2022/05/22 14:11:36;;;;;;;4.22;2.42;;;;;;;;;;5014788;28;20049;-54
2022/05/22 14:14:07;;;;;;;4.93;2.60;;;;;;;;;;5014437;28;20049;-53
2022/05/22 14:16:37;;;;;;;5.40;2.83;;;;;;;;;;5015249;28;20327;-51
2022/05/22 14:19:07;;;;;;;5.05;2.17;;;;;;;;;;5014311;28;20046;-52
2022/05/22 14:21:36;;;;;;;5.80;2.45;;;;;;;;;;5014126;28;20050;-56
2022/05/22 14:26:51;;;;;;;8.52;3.30;;;;;;;;;;5014886;28;20053;-55
2022/05/22 14:29:25;;;;;;;7.88;3.08;;;;;;;;;;5015309;28;20057;-59
2022/05/22 14:31:53;;;;;;;5.15;3.10;;;;;;;;;;5007330;28;20046;-57
2022/05/22 14:34:21;;;;;;;5.78;3.17;;;;;;;;;;5015102;28;20058;-64
2022/05/22 14:36:52;;;;;;;5.82;2.70;;;;;;;;;;5017950;28;20046;-58
2022/05/22 14:39:19;;;;;;;9.38;3.72;;;;;;;;;;5014305;28;20042;-55
2022/05/22 14:41:48;;;;;;;4.82;2.55;;;;;;;;;;5014675;28;20050;-57
2022/05/22 14:44:22;;;;;;;4.90;2.70;;;;;;;;;;5015037;28;20479;-56
2022/05/22 14:46:51;;;;;;;7.95;2.78;;;;;;;;;;5014859;28;20603;-57
2022/05/22 14:51:59;;;;;;;7.30;2.80;;;;;;;;;;5032902;28;20490;-55
2022/05/22 14:54:30;;;;;;;4.88;2.55;;;;;;;;;;5035075;28;20053;-57
2022/05/22 14:57:05;;;;;;;7.03;2.70;;;;;;;;;;5034863;28;20085;-54
2022/05/22 14:59:41;;;;;;;5.15;2.53;;;;;;;;;;5034471;28;20136;-58
2022/05/22 15:02:16;;;;;;;4.93;2.90;;;;;;;;;;5034689;28;20045;-59
2022/05/22 15:04:43;;;;;;;5.03;3.20;;;;;;;;;;5034298;28;20056;-54
2022/05/22 15:07:21;;;;;;;5.57;3.15;;;;;;;;;;5034197;28;20041;-55
2022/05/22 15:09:55;;;;;;;7.03;2.83;;;;;;;;;;5034561;28;20049;-56
2022/05/22 15:12:26;;;;;;;7.60;3.00;;;;;;;;;;5034307;28;20045;-55
2022/05/22 15:14:54;;;;;;;4.95;2.80;;;;;;;;;;5034842;28;20049;-54
2022/05/22 15:17:26;;;;;;;4.63;2.67;;;;;;;;;;5034407;28;20053;-52
2022/05/22 15:19:56;;;;;;;4.90;2.95;;;;;;;;;;5034235;28;20537;-55
2022/05/22 15:25:29;;;;;;;5.72;2.75;;;;;;;;;;5034604;28;19927;-54
2022/05/22 15:27:58;;;;;;;3.67;2.60;;;;;;;;;;5033811;28;20060;-53
2022/05/22 15:30:29;;;;;;;3.92;2.90;;;;;;;;;;5033983;28;20056;-52
2022/05/22 15:33:05;;;;;;;5.18;3.03;;;;;;;;;;5034003;28;20058;-52